Time;durP1;ratioP1;P1;durP2;ratioP2;P2;SDS_P1;SDS_P2;PMS_P1;PMS_P2;Temp;Humidity;BMP_temperature;BMP_pressure;BME280_temperature;BME280_humidity;BME280_pressure;Samples;Min_cycle;Max_cycle;Signal;HPM_P1;HPM_P2
2024/01/21 00:00:06;;;;;;;10.80;4.35;;;;;;;16.66;100.00;102142.69;5005456;28;20530;-49
2024/01/21 00:02:33;;;;;;;10.60;5.22;;;;;;;16.65;100.00;102138.28;5007115;28;20050;-48
2024/01/21 00:05:00;;;;;;;12.63;5.38;;;;;;;16.68;100.00;102134.63;5008065;28;20074;-49
2024/01/21 00:07:26;;;;;;;10.80;4.78;;;;;;;16.69;100.00;102125.00;5007126;28;20125;-51
2024/01/21 00:09:52;;;;;;;10.68;4.80;;;;;;;16.71;100.00;102116.94;5009629;28;20037;-53
2024/01/21 00:12:19;;;;;;;10.55;4.55;;;;;;;16.71;100.00;102125.34;5008415;28;20120;-51
2024/01/21 00:14:46;;;;;;;9.88;4.45;;;;;;;16.68;100.00;102117.78;5010457;28;20057;-48
2024/01/21 00:17:12;;;;;;;10.65;4.78;;;;;;;16.70;100.00;102104.13;5010727;28;20069;-50
2024/01/21 00:19:39;;;;;;;11.60;4.95;;;;;;;16.70;100.00;102095.69;5007582;28;20049;-51
2024/01/21 00:22:06;;;;;;;11.18;5.05;;;;;;;16.72;100.00;102079.22;5009288;28;20093;-49
2024/01/21 00:24:32;;;;;;;9.88;4.20;;;;;;;16.72;100.00;102062.38;5002903;28;20105;-51
2024/01/21 00:26:59;;;;;;;10.18;4.40;;;;;;;16.71;100.00;102066.38;5008686;28;20413;-50
2024/01/21 00:29:25;;;;;;;9.77;4.65;;;;;;;16.72;100.00;102059.56;5005831;28;20084;-50
2024/01/21 00:31:52;;;;;;;10.23;4.32;;;;;;;16.66;100.00;102058.44;5011838;28;20049;-50
2024/01/21 00:34:18;;;;;;;10.10;4.40;;;;;;;16.64;100.00;102057.31;5013483;28;20073;-52
2024/01/21 00:36:45;;;;;;;11.15;4.35;;;;;;;16.67;100.00;102054.41;5006403;28;20104;-48
2024/01/21 00:39:12;;;;;;;9.85;4.50;;;;;;;16.60;100.00;102060.16;5011412;28;20046;-52
2024/01/21 00:41:38;;;;;;;13.50;5.15;;;;;;;16.56;100.00;102045.38;5010538;28;20049;-51
2024/01/21 00:44:10;;;;;;;11.55;4.70;;;;;;;16.54;100.00;102039.41;5011527;28;20196;-47
2024/01/21 00:46:39;;;;;;;9.38;4.57;;;;;;;16.54;100.00;102044.25;5008379;28;20463;-52
2024/01/21 00:49:06;;;;;;;9.43;4.32;;;;;;;16.54;100.00;102039.41;5008984;28;20081;-50
2024/01/21 00:51:32;;;;;;;12.23;4.65;;;;;;;16.52;100.00;102038.25;5009201;28;20049;-48
2024/01/21 00:53:59;;;;;;;10.45;4.10;;;;;;;16.52;100.00;102038.25;5008241;28;20456;-51
2024/01/21 00:56:25;;;;;;;10.55;4.40;;;;;;;16.52;100.00;102030.63;5010349;28;20064;-50
2024/01/21 00:58:52;;;;;;;11.05;4.63;;;;;;;16.53;100.00;102028.59;4985097;28;50152;-50
2024/01/21 01:01:18;;;;;;;8.48;4.15;;;;;;;16.51;100.00;102017.78;4994888;28;20053;-51
2024/01/21 01:03:45;;;;;;;10.45;4.45;;;;;;;16.52;100.00;102022.19;5002975;28;20099;-54
2024/01/21 01:06:14;;;;;;;8.27;3.78;;;;;;;16.49;100.00;102006.22;5009592;28;20061;-53
2024/01/21 01:08:41;;;;;;;11.80;4.35;;;;;;;16.48;100.00;102001.78;5012591;28;20089;-51
2024/01/21 01:11:07;;;;;;;9.25;4.10;;;;;;;16.52;100.00;102005.34;5005702;28;20124;-54
2024/01/21 01:13:34;;;;;;;11.10;4.68;;;;;;;16.53;100.00;101998.50;5009998;28;20066;-52
2024/01/21 01:16:02;;;;;;;7.72;3.55;;;;;;;16.51;100.00;102005.78;5015550;28;20048;-52
2024/01/21 01:18:28;;;;;;;11.52;4.43;;;;;;;16.50;100.00;102009.78;5010662;28;20133;-53
2024/01/21 01:20:55;;;;;;;9.88;3.70;;;;;;;16.50;100.00;102004.97;5009916;28;20045;-52
2024/01/21 01:23:22;;;;;;;12.13;4.45;;;;;;;16.47;100.00;102005.06;5007211;28;20439;-51
2024/01/21 01:25:48;;;;;;;10.23;4.20;;;;;;;16.48;100.00;101992.59;5010316;28;20073;-52
2024/01/21 01:28:15;;;;;;;10.63;3.88;;;;;;;16.55;100.00;101996.09;5010573;28;20065;-49
2024/01/21 01:30:43;;;;;;;9.40;3.70;;;;;;;16.56;100.00;101996.84;5009795;28;21088;-49
2024/01/21 01:33:09;;;;;;;10.15;4.22;;;;;;;16.53;100.00;101990.09;5010195;28;20060;-51
2024/01/21 01:35:36;;;;;;;7.38;3.58;;;;;;;16.52;100.00;101990.50;5008004;28;20460;-51
2024/01/21 01:38:05;;;;;;;11.18;4.32;;;;;;;16.52;100.00;101993.31;5009439;28;20427;-52
2024/01/21 01:40:32;;;;;;;16.80;3.92;;;;;;;16.49;100.00;101986.56;5008692;28;20458;-50
2024/01/21 01:43:02;;;;;;;7.90;3.88;;;;;;;16.46;100.00;101984.59;5009885;28;20130;-50
2024/01/21 01:45:29;;;;;;;9.82;4.22;;;;;;;16.46;100.00;101986.59;5009297;28;20506;-51
2024/01/21 01:47:57;;;;;;;7.07;4.03;;;;;;;16.47;100.00;101977.75;5008225;28;20082;-49
2024/01/21 01:50:25;;;;;;;7.35;3.55;;;;;;;16.45;100.00;101982.22;5007340;28;20119;-50
2024/01/21 01:52:52;;;;;;;8.30;4.10;;;;;;;16.45;100.00;101974.59;5010040;28;20077;-52
2024/01/21 01:55:19;;;;;;;9.07;3.83;;;;;;;16.44;100.00;101972.22;5013362;28;20104;-51
2024/01/21 01:57:46;;;;;;;8.60;4.15;;;;;;;16.45;100.00;101976.59;5007181;28;20049;-50
2024/01/21 02:00:14;;;;;;;8.45;3.90;;;;;;;16.43;100.00;101968.63;5010116;28;20471;-50
2024/01/21 02:02:42;;;;;;;9.77;4.13;;;;;;;16.44;100.00;101978.63;5009266;28;20074;-51
2024/01/21 02:05:09;;;;;;;8.60;3.70;;;;;;;16.44;100.00;101972.22;5005981;28;20405;-52
2024/01/21 02:07:35;;;;;;;8.18;3.60;;;;;;;16.42;100.00;101969.03;5008505;28;20071;-50
2024/01/21 02:10:02;;;;;;;10.32;3.85;;;;;;;16.42;100.00;101961.44;5009425;28;20132;-52
2024/01/21 02:12:29;;;;;;;7.45;3.67;;;;;;;16.40;100.00;101958.25;5008693;28;20184;-51
2024/01/21 02:14:55;;;;;;;7.18;3.45;;;;;;;16.41;100.00;101951.41;5010842;28;20053;-50
2024/01/21 02:17:22;;;;;;;7.60;3.50;;;;;;;16.38;100.00;101951.47;5009376;28;20081;-51
2024/01/21 02:19:48;;;;;;;7.93;3.42;;;;;;;16.38;100.00;101949.47;5010793;28;20508;-50
2024/01/21 02:22:16;;;;;;;8.85;3.60;;;;;;;16.36;100.00;101940.69;5010016;28;20054;-51
2024/01/21 02:24:42;;;;;;;6.15;3.20;;;;;;;16.36;100.00;101931.44;5008315;28;20081;-51
2024/01/21 02:27:09;;;;;;;7.03;3.33;;;;;;;16.37;100.00;101927.44;5010483;28;20578;-51
2024/01/21 02:29:35;;;;;;;7.97;3.55;;;;;;;16.34;100.00;101922.69;5008421;28;20095;-50
2024/01/21 02:32:02;;;;;;;8.13;3.67;;;;;;;16.34;100.00;101925.50;5008375;28;20547;-50
2024/01/21 02:34:29;;;;;;;6.40;3.38;;;;;;;16.35;100.00;101918.66;5007400;28;20069;-51
2024/01/21 02:36:56;;;;;;;9.43;3.55;;;;;;;16.35;100.00;101913.03;5008964;28;20507;-52
2024/01/21 02:39:23;;;;;;;7.97;3.30;;;;;;;16.31;100.00;101907.47;5010190;28;20504;-50
2024/01/21 02:41:49;;;;;;;7.20;3.42;;;;;;;16.30;100.00;101903.09;5008996;28;20049;-50
2024/01/21 02:44:15;;;;;;;7.18;3.35;;;;;;;16.31;100.00;101892.66;5008974;28;20048;-49
2024/01/21 02:46:43;;;;;;;7.13;3.22;;;;;;;16.30;100.00;101893.91;5007472;28;20182;-51
2024/01/21 02:49:09;;;;;;;8.75;3.85;;;;;;;16.32;100.00;101886.63;5010975;28;20056;-50
2024/01/21 02:51:36;;;;;;;9.50;3.78;;;;;;;16.29;100.00;101881.88;5007866;28;20061;-51
2024/01/21 02:54:02;;;;;;;7.50;3.47;;;;;;;16.29;100.00;101884.69;5008807;28;20050;-52
2024/01/21 02:56:29;;;;;;;6.88;3.25;;;;;;;16.28;100.00;101883.09;5009685;28;20046;-51
2024/01/21 02:58:56;;;;;;;6.13;3.35;;;;;;;16.29;100.00;101876.25;5012801;28;20137;-51
2024/01/21 03:01:22;;;;;;;7.88;3.40;;;;;;;16.27;100.00;101875.88;5008397;28;20577;-49
2024/01/21 03:03:50;;;;;;;5.68;3.08;;;;;;;16.28;100.00;101871.88;5005966;28;20056;-51
2024/01/21 03:06:17;;;;;;;7.15;3.10;;;;;;;16.24;100.00;101859.88;5004646;28;20046;-51
2024/01/21 03:08:43;;;;;;;6.45;3.00;;;;;;;16.23;100.00;101858.28;5007712;28;20057;-52
2024/01/21 03:11:10;;;;;;;7.68;3.40;;;;;;;16.24;100.00;101851.44;5008823;28;20049;-49
2024/01/21 03:13:36;;;;;;;7.97;3.53;;;;;;;16.26;100.00;101857.47;5007348;28;20069;-51
2024/01/21 03:16:03;;;;;;;6.38;3.25;;;;;;;16.24;100.00;101854.25;5010148;28;20050;-52
2024/01/21 03:18:30;;;;;;;6.15;3.20;;;;;;;16.24;100.00;101857.06;5003680;28;20061;-52
2024/01/21 03:20:56;;;;;;;8.00;3.40;;;;;;;16.24;100.00;101847.88;5008403;28;20041;-51
2024/01/21 03:23:23;;;;;;;5.72;3.15;;;;;;;16.24;100.00;101857.06;5008081;28;20479;-51
2024/01/21 03:25:50;;;;;;;5.43;2.70;;;;;;;16.22;100.00;101848.31;5007875;28;20511;-52
2024/01/21 03:28:17;;;;;;;6.60;3.40;;;;;;;16.22;100.00;101853.91;5007463;28;20058;-51
2024/01/21 03:30:44;;;;;;;6.07;3.00;;;;;;;16.23;100.00;101838.66;5007528;28;20121;-51
2024/01/21 03:33:11;;;;;;;6.70;3.08;;;;;;;16.21;100.00;101829.09;5006073;28;20420;-49
2024/01/21 03:35:37;;;;;;;7.72;3.83;;;;;;;16.20;100.00;101824.72;5006762;28;20729;-52
2024/01/21 03:38:04;;;;;;;8.05;3.10;;;;;;;16.21;100.00;101813.06;5008470;28;20054;-52
2024/01/21 03:40:30;;;;;;;9.05;3.58;;;;;;;16.19;100.00;101807.06;5007413;28;20468;-50
2024/01/21 03:42:57;;;;;;;5.65;2.95;;;;;;;16.20;100.00;101814.25;5008213;28;20069;-53
2024/01/21 03:45:23;;;;;;;6.50;2.80;;;;;;;16.19;100.00;101809.06;5007437;28;20069;-52
2024/01/21 03:47:50;;;;;;;4.88;2.70;;;;;;;16.19;100.00;101807.06;5006455;28;20045;-53
2024/01/21 03:50:19;;;;;;;7.18;3.30;;;;;;;16.18;100.00;101813.91;5006957;28;20136;-50
2024/01/21 03:52:47;;;;;;;7.57;3.22;;;;;;;16.17;100.00;101803.88;4989647;28;20609;-51
2024/01/21 03:55:15;;;;;;;5.63;2.90;;;;;;;16.16;100.00;101796.69;5008066;28;20096;-53
2024/01/21 03:57:41;;;;;;;7.13;2.63;;;;;;;16.20;100.00;101794.63;5007171;28;20078;-49
2024/01/21 04:00:12;;;;;;;7.70;3.40;;;;;;;16.19;100.00;101795.84;5007249;28;20054;-53
2024/01/21 04:02:38;;;;;;;4.57;2.40;;;;;;;16.19;100.00;101798.66;5007372;28;20046;-53
2024/01/21 04:05:06;;;;;;;6.50;2.85;;;;;;;16.17;100.00;101794.69;5006311;28;20077;-50
2024/01/21 04:07:33;;;;;;;6.60;3.20;;;;;;;16.17;100.00;101787.06;5010866;28;20046;-50
2024/01/21 04:10:00;;;;;;;6.80;2.70;;;;;;;16.16;100.00;101777.06;5011791;28;20133;-53
2024/01/21 04:12:26;;;;;;;6.57;2.55;;;;;;;16.18;100.00;101769.03;5011265;28;20492;-53
2024/01/21 04:14:53;;;;;;;5.70;2.80;;;;;;;16.18;100.00;101777.44;5011487;28;20049;-52
2024/01/21 04:17:22;;;;;;;6.18;2.92;;;;;;;16.16;100.00;101765.03;5011706;28;20049;-52
2024/01/21 04:19:49;;;;;;;6.93;2.80;;;;;;;16.16;100.00;101759.44;5009964;28;20049;-52
2024/01/21 04:22:18;;;;;;;6.15;2.67;;;;;;;16.16;100.00;101749.00;5010016;28;20110;-49
2024/01/21 04:24:46;;;;;;;5.70;2.38;;;;;;;16.18;100.00;101749.38;5010232;28;20073;-51
2024/01/21 04:27:13;;;;;;;5.95;2.70;;;;;;;16.20;100.00;101746.91;5011489;28;20509;-51
2024/01/21 04:29:40;;;;;;;7.05;2.85;;;;;;;16.17;100.00;101747.78;5010577;28;20430;-51
2024/01/21 04:32:06;;;;;;;6.40;3.42;;;;;;;16.18;100.00;101734.56;5010046;28;20591;-49
2024/01/21 04:34:33;;;;;;;7.18;2.85;;;;;;;16.19;100.00;101730.50;5012693;28;20061;-49
2024/01/21 04:37:01;;;;;;;7.43;2.70;;;;;;;16.17;100.00;101725.34;5011091;28;20524;-49
2024/01/21 04:39:27;;;;;;;5.57;2.60;;;;;;;16.18;100.00;101734.56;5012480;28;20046;-52
2024/01/21 04:41:54;;;;;;;4.95;2.35;;;;;;;16.18;100.00;101735.34;5012544;28;20053;-52
2024/01/21 04:44:20;;;;;;;4.60;2.47;;;;;;;16.18;100.00;101731.75;5011666;28;20103;-51
2024/01/21 04:46:47;;;;;;;6.88;2.70;;;;;;;16.17;100.00;101718.94;5010188;28;20108;-53
2024/01/21 04:49:13;;;;;;;4.47;2.50;;;;;;;16.15;100.00;101713.78;5009902;28;20074;-51
2024/01/21 04:51:40;;;;;;;5.43;2.50;;;;;;;16.14;100.00;101709.34;5011168;28;20050;-52
2024/01/21 04:54:07;;;;;;;5.90;2.45;;;;;;;16.16;100.00;101698.50;5009215;28;20056;-52
2024/01/21 04:56:35;;;;;;;7.63;2.50;;;;;;;16.15;100.00;101698.94;5011471;28;20037;-52
2024/01/21 04:59:02;;;;;;;5.85;2.45;;;;;;;16.15;100.00;101684.91;5011611;28;20476;-52
2024/01/21 05:01:29;;;;;;;6.88;2.88;;;;;;;16.13;100.00;101685.34;5007675;28;20431;-52
2024/01/21 05:03:56;;;;;;;5.53;2.58;;;;;;;16.12;100.00;101680.97;5009994;28;20125;-51
2024/01/21 05:06:22;;;;;;;4.35;2.58;;;;;;;16.12;100.00;101674.56;5010293;28;20042;-53
2024/01/21 05:08:49;;;;;;;5.82;2.72;;;;;;;16.12;100.00;101668.94;5009621;28;20061;-49
2024/01/21 05:11:15;;;;;;;4.88;2.53;;;;;;;16.13;100.00;101671.31;5011635;28;20147;-52
2024/01/21 05:13:42;;;;;;;5.30;2.80;;;;;;;16.14;100.00;101666.50;5006179;28;20042;-52
2024/01/21 05:16:17;;;;;;;6.78;2.80;;;;;;;16.11;100.00;101659.75;5010517;28;20046;-52
2024/01/21 05:18:44;;;;;;;5.75;2.50;;;;;;;16.10;100.00;101658.16;5009606;28;20152;-52
2024/01/21 05:21:11;;;;;;;5.70;2.40;;;;;;;16.13;100.00;101671.31;5010718;28;20061;-51
2024/01/21 05:23:38;;;;;;;4.35;2.45;;;;;;;16.15;100.00;101679.31;5009669;28;20050;-50
2024/01/21 05:26:04;;;;;;;7.35;2.80;;;;;;;16.14;100.00;101672.88;5010911;28;20144;-52
2024/01/21 05:28:31;;;;;;;7.85;2.70;;;;;;;16.14;100.00;101655.28;5008701;28;20049;-49
2024/01/21 05:30:57;;;;;;;4.35;2.40;;;;;;;16.15;100.00;101657.66;5009815;28;20054;-50
2024/01/21 05:33:24;;;;;;;5.90;2.60;;;;;;;16.16;100.00;101655.63;5010271;28;20054;-51
2024/01/21 05:35:50;;;;;;;6.18;2.80;;;;;;;16.14;100.00;101656.06;5013174;28;20045;-49
2024/01/21 05:38:17;;;;;;;6.25;2.53;;;;;;;16.17;100.00;101643.19;5010725;28;20132;-49
2024/01/21 05:40:43;;;;;;;5.25;2.58;;;;;;;16.16;100.00;101652.81;5013353;28;20693;-52
2024/01/21 05:43:10;;;;;;;5.22;2.33;;;;;;;16.15;100.00;101651.25;5010643;28;20069;-52
2024/01/21 05:45:37;;;;;;;5.97;2.30;;;;;;;16.15;100.00;101649.25;5010155;28;20567;-53
2024/01/21 05:48:04;;;;;;;6.68;2.33;;;;;;;16.14;100.00;101653.25;5009552;28;20049;-51
2024/01/21 05:50:30;;;;;;;3.40;2.00;;;;;;;16.15;100.00;101638.03;5012346;28;20133;-53
2024/01/21 05:52:57;;;;;;;7.68;2.63;;;;;;;16.16;100.00;101636.78;5010770;28;20053;-52
2024/01/21 05:55:26;;;;;;;6.88;2.63;;;;;;;16.16;100.00;101638.78;5010396;28;20085;-51
2024/01/21 05:57:53;;;;;;;5.47;2.20;;;;;;;16.15;100.00;101635.22;5012057;28;20578;-51
2024/01/21 06:00:19;;;;;;;7.00;2.40;;;;;;;16.16;100.00;101642.41;5012904;28;20579;-52
2024/01/21 06:02:46;;;;;;;4.65;2.30;;;;;;;16.13;100.00;101625.66;5011476;28;20497;-49
2024/01/21 06:05:13;;;;;;;5.78;2.70;;;;;;;16.12;100.00;101633.28;5008404;28;20046;-51
2024/01/21 06:07:39;;;;;;;4.38;2.28;;;;;;;16.14;100.00;101616.78;5008193;28;20054;-53
2024/01/21 06:10:06;;;;;;;5.47;2.50;;;;;;;16.13;100.00;101609.59;5012243;28;20110;-51
2024/01/21 06:12:33;;;;;;;5.38;2.75;;;;;;;16.13;100.00;101606.03;5009454;28;20050;-50
2024/01/21 06:15:01;;;;;;;3.95;1.98;;;;;;;16.13;100.00;101600.41;5009568;28;20508;-51
2024/01/21 06:17:27;;;;;;;2.88;1.50;;;;;;;16.14;100.00;101591.53;5007642;28;20045;-51
2024/01/21 06:19:54;;;;;;;5.63;2.20;;;;;;;16.14;100.00;101590.75;5008455;28;20055;-51
2024/01/21 06:22:20;;;;;;;5.63;2.53;;;;;;;16.14;100.00;101583.13;5010065;28;20136;-50
2024/01/21 06:24:47;;;;;;;5.15;2.55;;;;;;;16.13;100.00;101566.75;5006825;28;20136;-50
2024/01/21 06:27:13;;;;;;;3.25;2.00;;;;;;;16.14;100.00;101565.50;5009898;28;20081;-50
2024/01/21 06:29:44;;;;;;;5.57;2.17;;;;;;;16.13;100.00;101573.13;5013148;28;20050;-52
2024/01/21 06:32:11;;;;;;;5.97;2.35;;;;;;;16.11;100.00;101581.22;5008607;28;20136;-52
2024/01/21 06:34:38;;;;;;;4.90;2.28;;;;;;;16.10;100.00;101578.84;5008334;28;20049;-50
2024/01/21 06:37:05;;;;;;;4.50;2.33;;;;;;;16.11;100.00;101580.41;5009031;28;20073;-52
2024/01/21 06:39:31;;;;;;;5.82;2.13;;;;;;;16.11;100.00;101592.44;5015289;28;20551;-52
2024/01/21 06:41:59;;;;;;;6.32;2.67;;;;;;;16.12;100.00;101596.00;5004877;28;20527;-53
2024/01/21 06:44:26;;;;;;;6.20;2.60;;;;;;;16.09;100.00;101589.25;5010228;28;20042;-51
2024/01/21 06:46:52;;;;;;;4.32;2.10;;;;;;;16.09;100.00;101586.44;5006718;28;20074;-49
2024/01/21 06:49:19;;;;;;;4.90;2.42;;;;;;;16.09;100.00;101580.84;5003735;28;20046;-50
2024/01/21 06:51:54;;;;;;;6.03;2.35;;;;;;;16.11;100.00;101581.22;5005962;28;20060;-51
2024/01/21 06:54:21;;;;;;;6.85;2.88;;;;;;;16.12;100.00;101571.56;5017349;28;20447;-51
2024/01/21 06:56:47;;;;;;;3.65;2.03;;;;;;;16.14;100.00;101562.72;5004873;28;20658;-51
2024/01/21 06:59:14;;;;;;;4.65;2.17;;;;;;;16.10;100.00;101557.16;5005927;28;20050;-50
2024/01/21 07:01:41;;;;;;;4.93;2.15;;;;;;;16.12;100.00;101582.78;5015485;28;20071;-48
2024/01/21 07:04:07;;;;;;;3.78;2.15;;;;;;;16.12;100.00;101624.84;5014855;28;20610;-51
2024/01/21 07:06:34;;;;;;;3.60;2.05;;;;;;;16.13;100.00;101614.44;5009693;28;20069;-51
2024/01/21 07:09:01;;;;;;;5.28;2.03;;;;;;;16.13;100.00;101617.25;5008212;28;20046;-49
2024/01/21 07:11:28;;;;;;;4.03;2.00;;;;;;;16.11;100.00;101626.09;5009065;28;20100;-51
2024/01/21 07:13:54;;;;;;;2.80;1.73;;;;;;;16.12;100.00;101630.47;5006462;28;20100;-49
2024/01/21 07:16:21;;;;;;;3.65;1.77;;;;;;;16.12;100.00;101635.28;5006395;28;20069;-49
2024/01/21 07:18:47;;;;;;;3.55;1.80;;;;;;;16.12;100.00;101635.28;5006587;28;20073;-51
2024/01/21 07:21:14;;;;;;;5.07;2.10;;;;;;;16.11;100.00;101639.31;5011728;28;20057;-49
2024/01/21 07:23:40;;;;;;;4.05;2.00;;;;;;;16.12;100.00;101643.69;5006564;28;20050;-52
2024/01/21 07:26:07;;;;;;;5.85;1.90;;;;;;;16.11;100.00;101647.72;5005308;28;20046;-51
2024/01/21 07:28:34;;;;;;;3.65;1.90;;;;;;;16.12;100.00;101640.88;5007124;28;20540;-51
2024/01/21 07:31:00;;;;;;;5.35;2.45;;;;;;;16.10;100.00;101644.13;5009726;28;20127;-48
2024/01/21 07:33:27;;;;;;;3.55;2.00;;;;;;;16.08;100.00;101655.00;5011652;28;20050;-51
2024/01/21 07:35:54;;;;;;;6.35;2.22;;;;;;;16.10;100.00;101658.16;5006335;28;20132;-46
2024/01/21 07:38:20;;;;;;;5.35;2.25;;;;;;;16.12;100.00;101658.53;5005716;28;20655;-49
2024/01/21 07:40:47;;;;;;;4.47;2.22;;;;;;;16.13;100.00;101662.13;5009041;28;20054;-49
2024/01/21 07:43:14;;;;;;;3.63;1.92;;;;;;;16.13;100.00;101662.13;5007838;28;20058;-48
2024/01/21 07:45:40;;;;;;;3.75;1.90;;;;;;;16.14;100.00;101653.25;5010299;28;20516;-49
2024/01/21 07:48:08;;;;;;;5.88;2.03;;;;;;;16.13;100.00;101654.47;5010569;28;20057;-51
2024/01/21 07:50:35;;;;;;;3.63;1.77;;;;;;;16.13;100.00;101659.31;5008838;28;20077;-47
2024/01/21 07:53:02;;;;;;;5.43;1.67;;;;;;;16.12;100.00;101668.94;5008799;28;20478;-47
2024/01/21 07:55:29;;;;;;;5.32;2.10;;;;;;;16.14;100.00;101666.50;5010121;28;20095;-48
2024/01/21 07:57:55;;;;;;;4.47;1.88;;;;;;;16.13;100.00;101665.69;5009174;28;21022;-49
2024/01/21 08:00:23;;;;;;;4.80;2.05;;;;;;;16.13;100.00;101667.75;5008654;28;20490;-47
2024/01/21 08:02:49;;;;;;;4.78;1.88;;;;;;;16.14;100.00;101677.72;5008163;28;20148;-46
2024/01/21 08:05:16;;;;;;;3.40;1.75;;;;;;;16.14;100.00;101664.47;5005050;28;20049;-47
2024/01/21 08:07:43;;;;;;;3.38;1.60;;;;;;;16.14;100.00;101658.88;5004678;28;20443;-50
2024/01/21 08:10:10;;;;;;;3.88;1.92;;;;;;;16.15;100.00;101651.25;5012727;28;20050;-47
2024/01/21 08:12:36;;;;;;;3.03;1.80;;;;;;;16.12;100.00;101652.09;5004412;28;20859;-48
2024/01/21 08:15:04;;;;;;;10.55;4.32;;;;;;;15.89;100.00;101635.38;5009776;28;20431;-47
2024/01/21 08:17:31;;;;;;;13.10;5.18;;;;;;;15.60;100.00;101635.16;5006797;28;20520;-46
2024/01/21 08:19:57;;;;;;;12.57;5.78;;;;;;;15.68;100.00;101633.81;5009660;28;20060;-48
2024/01/21 08:22:24;;;;;;;11.55;5.13;;;;;;;15.75;100.00;101625.25;5005899;28;20068;-49
2024/01/21 08:24:53;;;;;;;11.32;4.60;;;;;;;15.80;100.00;101619.13;5005860;28;20133;-48
2024/01/21 08:27:20;;;;;;;9.32;4.18;;;;;;;15.81;100.00;101617.13;5003397;28;20054;-51
2024/01/21 08:29:46;;;;;;;13.30;4.85;;;;;;;15.83;100.00;101614.69;5006532;28;20139;-47
2024/01/21 08:32:13;;;;;;;11.10;4.88;;;;;;;15.86;100.00;101617.41;5001663;28;20053;-50
2024/01/21 08:34:39;;;;;;;11.98;4.43;;;;;;;15.87;100.00;101604.94;5010441;28;20088;-49
2024/01/21 08:37:06;;;;;;;9.45;3.80;;;;;;;15.86;100.00;101597.00;5007302;28;20045;-49
2024/01/21 08:39:33;;;;;;;10.60;4.57;;;;;;;15.89;100.00;101602.50;5005546;28;20046;-49
2024/01/21 08:41:59;;;;;;;8.43;3.90;;;;;;;15.95;100.00;101606.41;5009287;28;20050;-46
2024/01/21 08:44:26;;;;;;;7.15;3.53;;;;;;;15.95;100.00;101634.44;5010841;28;20050;-46
2024/01/21 08:46:53;;;;;;;9.05;3.50;;;;;;;15.95;100.00;101647.66;5009776;28;20050;-45
2024/01/21 08:49:19;;;;;;;7.15;3.38;;;;;;;15.93;100.00;101656.50;5006389;28;20077;-49
2024/01/21 08:51:46;;;;;;;11.32;3.60;;;;;;;15.92;100.00;101676.56;5011410;28;20064;-47
2024/01/21 08:54:12;;;;;;;10.38;3.58;;;;;;;15.95;100.00;101696.16;5008725;28;20046;-48
2024/01/21 08:56:39;;;;;;;7.72;3.33;;;;;;;15.97;100.00;101704.13;5007360;28;20038;-45
2024/01/21 08:59:06;;;;;;;8.13;3.20;;;;;;;15.97;100.00;101706.94;5012687;28;20057;-48
2024/01/21 09:01:32;;;;;;;7.57;3.08;;;;;;;15.98;100.00;101714.91;5009980;28;20578;-47
2024/01/21 09:03:59;;;;;;;6.90;3.33;;;;;;;15.98;100.00;101700.91;5014844;28;20763;-47
2024/01/21 09:06:26;;;;;;;13.40;3.53;;;;;;;15.98;100.00;101692.47;5010550;28;20061;-48
2024/01/21 09:08:54;;;;;;;7.68;3.67;;;;;;;15.98;100.00;101686.88;5011527;28;20053;-48
2024/01/21 09:11:21;;;;;;;8.07;3.05;;;;;;;15.98;100.00;101674.84;5005439;28;20131;-47
2024/01/21 09:13:47;;;;;;;10.73;3.85;;;;;;;15.98;100.00;101692.47;5008510;28;20119;-46
2024/01/21 09:16:19;;;;;;;7.82;3.13;;;;;;;15.99;100.00;101710.88;5006834;28;20611;-45
2024/01/21 09:18:46;;;;;;;6.97;3.00;;;;;;;16.00;100.00;101701.25;5000094;28;20041;-44
2024/01/21 09:21:13;;;;;;;6.28;3.08;;;;;;;15.98;100.00;101706.50;5004660;28;20147;-45
2024/01/21 09:23:55;;;;;;;8.15;2.97;;;;;;;15.96;100.00;101711.75;5002468;28;20049;-46
2024/01/21 09:26:21;;;;;;;10.65;3.35;;;;;;;15.95;100.00;101707.38;5004701;28;20098;-45
2024/01/21 09:28:48;;;;;;;8.07;2.88;;;;;;;15.99;100.00;101710.88;5006278;28;20054;-49
2024/01/21 09:31:14;;;;;;;8.35;2.95;;;;;;;15.98;100.00;101697.28;5009572;28;20128;-45
2024/01/21 09:33:41;;;;;;;6.85;3.00;;;;;;;15.98;100.00;101688.88;5011011;28;20136;-47
2024/01/21 09:36:08;;;;;;;9.30;2.92;;;;;;;15.99;100.00;101690.44;5011310;28;20141;-45
2024/01/21 09:38:34;;;;;;;8.50;3.20;;;;;;;15.99;100.00;101708.06;5010024;28;20050;-45
2024/01/21 09:41:07;;;;;;;7.95;2.55;;;;;;;15.98;100.00;101698.09;5010853;28;20116;-45
2024/01/21 09:43:37;;;;;;;4.85;2.63;;;;;;;15.98;100.00;101698.09;5009436;28;20068;-45
2024/01/21 09:46:06;;;;;;;5.90;2.72;;;;;;;15.98;100.00;101700.09;5012170;28;20423;-46
2024/01/21 09:48:35;;;;;;;10.57;3.10;;;;;;;15.99;100.00;101690.44;5011384;28;20566;-45
2024/01/21 09:51:05;;;;;;;5.30;2.65;;;;;;;15.98;100.00;101714.13;5011351;28;20060;-46
2024/01/21 09:53:35;;;;;;;5.32;2.60;;;;;;;15.98;100.00;101712.13;5011005;28;20081;-46
2024/01/21 09:56:06;;;;;;;7.13;2.92;;;;;;;15.95;100.00;101714.97;5008707;28;20096;-48
2024/01/21 09:58:48;;;;;;;4.45;2.40;;;;;;;15.97;100.00;101704.91;5006462;28;20049;-46
2024/01/21 10:01:16;;;;;;;8.57;2.80;;;;;;;15.98;100.00;101712.13;5013001;28;20140;-45
2024/01/21 10:03:43;;;;;;;5.10;2.58;;;;;;;15.97;100.00;101707.69;5010817;28;20049;-46
2024/01/21 10:06:10;;;;;;;8.65;2.72;;;;;;;16.00;100.00;101698.44;5007438;28;20061;-50
2024/01/21 10:08:40;;;;;;;5.30;2.60;;;;;;;16.00;100.00;101690.03;5008036;28;20046;-46
2024/01/21 10:11:07;;;;;;;5.85;2.15;;;;;;;16.00;100.00;101684.41;5011541;28;20049;-46
2024/01/21 10:13:38;;;;;;;4.90;2.50;;;;;;;16.02;100.00;101689.59;5012573;28;20042;-48
2024/01/21 10:16:12;;;;;;;9.15;2.50;;;;;;;16.03;100.00;101694.75;5009909;28;20061;-46
2024/01/21 10:18:45;;;;;;;3.35;2.30;;;;;;;16.04;100.00;101695.56;5006667;28;20050;-45
2024/01/21 10:21:12;;;;;;;6.72;2.55;;;;;;;16.04;100.00;101699.16;5008995;28;20136;-50
2024/01/21 10:23:38;;;;;;;4.97;2.50;;;;;;;16.02;100.00;101704.41;5007229;28;20069;-48
2024/01/21 10:26:05;;;;;;;4.82;2.50;;;;;;;16.04;100.00;101707.56;5002254;28;20180;-46
2024/01/21 10:28:32;;;;;;;6.28;2.72;;;;;;;16.05;100.00;101703.56;5003385;28;20046;-46
2024/01/21 10:30:59;;;;;;;7.20;2.50;;;;;;;16.09;100.00;101712.69;5004569;28;20042;-46
2024/01/21 10:33:29;;;;;;;5.10;2.50;;;;;;;16.11;100.00;101704.63;5004289;28;20049;-45
2024/01/21 10:36:00;;;;;;;5.72;2.38;;;;;;;16.12;100.00;101728.66;5003565;28;20056;-44
2024/01/21 10:38:39;;;;;;;7.47;2.78;;;;;;;16.13;100.00;101721.81;5006103;28;20144;-45
2024/01/21 10:41:05;;;;;;;5.15;2.72;;;;;;;16.16;100.00;101731.38;5012126;28;20150;-48
2024/01/21 10:43:34;;;;;;;5.40;2.88;;;;;;;16.16;100.00;101729.38;5011429;28;20053;-45
2024/01/21 10:46:02;;;;;;;5.90;2.60;;;;;;;16.19;100.00;101725.69;5009555;28;20077;-48
2024/01/21 10:48:29;;;;;;;5.78;2.67;;;;;;;16.19;100.00;101742.53;5009602;28;20065;-45
2024/01/21 10:50:56;;;;;;;5.03;2.40;;;;;;;16.20;100.00;101741.31;5011966;28;20100;-45
2024/01/21 10:53:24;;;;;;;7.32;2.72;;;;;;;16.21;100.00;101734.50;5012031;28;20038;-46
2024/01/21 10:55:51;;;;;;;6.65;2.75;;;;;;;16.21;100.00;101717.66;5007819;28;20088;-47
2024/01/21 10:58:18;;;;;;;4.40;2.65;;;;;;;16.25;100.00;101731.59;5006364;28;20068;-46
2024/01/21 11:00:45;;;;;;;6.88;2.80;;;;;;;16.24;100.00;101716.75;5005726;28;20116;-45
2024/01/21 11:03:22;;;;;;;5.38;2.65;;;;;;;16.27;100.00;101713.13;5006904;28;20565;-46
2024/01/21 11:06:04;;;;;;;5.03;2.47;;;;;;;16.26;100.00;101711.56;5008989;28;20180;-46
2024/01/21 11:08:32;;;;;;;6.30;2.70;;;;;;;16.26;100.00;101713.56;5007037;28;20445;-48
2024/01/21 11:11:21;;;;;;;6.03;2.75;;;;;;;16.29;100.00;101702.28;5004088;28;20496;-46
2024/01/21 11:13:52;;;;;;;6.30;2.83;;;;;;;16.28;100.00;101713.94;5011833;28;20054;-48
2024/01/21 11:16:28;;;;;;;7.25;3.13;;;;;;;16.27;100.00;101715.16;5003330;28;20049;-46